Time;durP1;ratioP1;P1;durP2;ratioP2;P2;SDS_P1;SDS_P2;PMS_P1;PMS_P2;Temp;Humidity;BMP_temperature;BMP_pressure;BME280_temperature;BME280_humidity;BME280_pressure;Samples;Min_cycle;Max_cycle;Signal;HPM_P1;HPM_P2
2022/01/07 00:02:00;;;;;;;14.15;5.50;;;3.90;99.90;;;;;;4990588;28;20057;-58
2022/01/07 00:04:26;;;;;;;19.02;5.95;;;4.00;99.90;;;;;;4990638;28;20046;-58
2022/01/07 00:06:51;;;;;;;16.63;5.80;;;4.00;99.90;;;;;;4989058;28;20056;-58
2022/01/07 00:09:18;;;;;;;12.55;6.10;;;3.90;99.90;;;;;;4990734;28;20046;-58
2022/01/07 00:11:44;;;;;;;15.15;5.80;;;3.90;99.90;;;;;;4990597;28;20082;-58
2022/01/07 00:14:10;;;;;;;19.23;6.05;;;3.90;99.90;;;;;;4990464;28;20139;-58
2022/01/07 00:16:35;;;;;;;11.75;5.43;;;3.90;99.90;;;;;;4990189;28;20139;-58
2022/01/07 00:19:01;;;;;;;16.63;5.30;;;4.00;99.90;;;;;;4989910;28;20056;-58
2022/01/07 00:21:26;;;;;;;15.90;5.25;;;3.90;99.90;;;;;;4990100;28;20113;-58
2022/01/07 00:23:52;;;;;;;13.25;4.97;;;3.90;99.90;;;;;;4991009;28;20419;-58
2022/01/07 00:26:18;;;;;;;13.73;5.28;;;3.90;99.90;;;;;;4994038;28;20034;-58
2022/01/07 00:28:43;;;;;;;17.52;5.85;;;3.90;99.90;;;;;;4993774;28;20064;-58
2022/01/07 00:31:09;;;;;;;13.70;6.43;;;3.90;99.90;;;;;;4993556;28;20042;-58
2022/01/07 00:33:35;;;;;;;13.52;6.13;;;3.90;99.90;;;;;;4993219;28;20049;-58
2022/01/07 00:36:00;;;;;;;16.50;5.80;;;3.80;99.90;;;;;;4993556;28;20134;-58
2022/01/07 00:38:29;;;;;;;12.68;5.38;;;3.80;99.90;;;;;;4993218;28;20477;-58
2022/01/07 00:40:55;;;;;;;15.32;6.40;;;3.80;99.90;;;;;;4992557;28;20068;-57
2022/01/07 00:43:21;;;;;;;14.48;5.88;;;3.70;99.90;;;;;;4993501;28;20435;-58
2022/01/07 00:45:46;;;;;;;15.65;6.00;;;3.60;99.90;;;;;;4993304;28;20038;-58
2022/01/07 00:48:12;;;;;;;19.63;7.47;;;3.60;99.90;;;;;;4993357;28;20081;-58
2022/01/07 00:50:38;;;;;;;11.80;5.65;;;3.50;99.90;;;;;;4993242;28;20492;-58
2022/01/07 00:53:03;;;;;;;13.63;6.32;;;3.60;99.90;;;;;;4993512;28;20366;-58
2022/01/07 00:55:29;;;;;;;15.80;6.57;;;3.50;99.90;;;;;;4993246;28;20465;-58
2022/01/07 00:57:56;;;;;;;18.05;6.20;;;3.40;99.90;;;;;;4993536;28;20055;-58
2022/01/07 01:00:25;;;;;;;17.77;6.25;;;3.40;99.90;;;;;;4993155;28;20376;-58
2022/01/07 01:02:51;;;;;;;12.13;6.30;;;3.30;99.90;;;;;;4993127;28;20044;-58
2022/01/07 01:05:18;;;;;;;15.52;6.90;;;3.30;99.90;;;;;;4992864;28;20049;-58
2022/01/07 01:07:44;;;;;;;15.77;6.22;;;3.30;99.90;;;;;;4993089;28;20092;-58
2022/01/07 01:10:12;;;;;;;13.45;5.85;;;3.30;99.90;;;;;;4991640;28;20130;-58
2022/01/07 01:12:41;;;;;;;15.10;5.63;;;3.30;99.90;;;;;;4993198;28;20051;-58
2022/01/07 01:15:11;;;;;;;17.42;6.50;;;3.20;99.90;;;;;;4992831;28;20042;-58
2022/01/07 01:17:36;;;;;;;17.52;7.15;;;3.20;99.90;;;;;;4993038;28;20476;-58
2022/01/07 01:20:05;;;;;;;17.98;6.00;;;3.20;99.90;;;;;;4993074;28;20030;-58
2022/01/07 01:22:31;;;;;;;11.70;6.63;;;3.20;99.90;;;;;;4992976;28;20453;-58
2022/01/07 01:24:56;;;;;;;21.85;6.32;;;3.20;99.90;;;;;;4992994;28;20045;-58
2022/01/07 01:27:22;;;;;;;15.45;6.60;;;3.10;99.90;;;;;;4992905;28;20400;-58
2022/01/07 01:29:48;;;;;;;13.55;5.75;;;3.10;99.90;;;;;;4992321;28;20129;-58
2022/01/07 01:32:16;;;;;;;17.65;6.90;;;3.10;99.90;;;;;;4992554;28;20038;-58
2022/01/07 01:34:41;;;;;;;28.10;7.07;;;3.10;99.90;;;;;;4992145;28;20046;-58
2022/01/07 01:37:07;;;;;;;13.38;6.28;;;3.00;99.90;;;;;;4992250;28;20054;-58
2022/01/07 01:39:33;;;;;;;21.02;6.65;;;3.00;99.90;;;;;;4992870;28;20437;-58
2022/01/07 01:41:58;;;;;;;24.63;8.32;;;3.00;99.90;;;;;;4992759;28;20570;-58
2022/01/07 01:44:25;;;;;;;21.30;6.47;;;3.00;99.90;;;;;;4992680;28;20046;-50
2022/01/07 01:46:51;;;;;;;13.25;6.28;;;3.00;99.90;;;;;;4991149;28;20065;-50
2022/01/07 01:49:16;;;;;;;20.08;6.93;;;2.90;99.90;;;;;;4991066;28;20123;-46
2022/01/07 01:51:42;;;;;;;19.65;6.90;;;2.90;99.90;;;;;;4990938;28;20045;-48
2022/01/07 01:54:08;;;;;;;16.33;7.43;;;2.90;99.90;;;;;;4990999;28;20507;-51
2022/01/07 01:56:34;;;;;;;12.82;6.47;;;2.90;99.90;;;;;;4991149;28;20042;-51
2022/01/07 01:59:00;;;;;;;15.98;6.95;;;2.90;99.90;;;;;;4989715;28;20072;-49
2022/01/07 02:01:27;;;;;;;15.00;6.90;;;2.90;99.90;;;;;;4990774;28;20522;-49
2022/01/07 02:03:53;;;;;;;18.52;7.15;;;2.80;99.90;;;;;;4990886;28;20400;-51
2022/01/07 02:06:18;;;;;;;14.38;6.60;;;2.90;99.90;;;;;;4990705;28;20035;-50
2022/01/07 02:08:45;;;;;;;12.55;7.45;;;2.80;99.90;;;;;;4990882;28;20049;-47
2022/01/07 02:11:10;;;;;;;20.42;7.38;;;2.80;99.90;;;;;;4990860;28;20038;-48
2022/01/07 02:13:36;;;;;;;17.90;7.95;;;2.80;99.90;;;;;;4990784;28;20443;-51
2022/01/07 02:16:02;;;;;;;12.15;6.55;;;2.90;99.90;;;;;;4990657;28;20043;-51
2022/01/07 02:18:27;;;;;;;13.00;7.05;;;2.80;99.90;;;;;;4990542;28;20404;-47
2022/01/07 02:20:53;;;;;;;14.57;7.22;;;2.80;99.90;;;;;;4990588;28;20092;-49
2022/01/07 02:23:19;;;;;;;14.57;7.13;;;2.80;99.90;;;;;;4990948;28;20111;-48
2022/01/07 02:25:46;;;;;;;14.95;7.45;;;2.80;99.90;;;;;;4991018;28;20046;-49
2022/01/07 02:28:12;;;;;;;17.23;7.60;;;2.80;99.90;;;;;;4990734;28;20451;-46
2022/01/07 02:30:38;;;;;;;13.75;6.88;;;2.80;99.90;;;;;;4990693;28;20046;-49
2022/01/07 02:33:04;;;;;;;14.18;7.18;;;2.80;99.90;;;;;;4990398;28;20053;-50
2022/01/07 02:35:33;;;;;;;13.40;7.28;;;2.80;99.90;;;;;;4990240;28;20034;-51
2022/01/07 02:38:00;;;;;;;15.07;7.18;;;2.80;99.90;;;;;;4990765;28;20058;-47
2022/01/07 02:40:25;;;;;;;12.10;7.70;;;2.90;99.90;;;;;;4990424;28;20049;-50
2022/01/07 02:42:52;;;;;;;12.30;7.25;;;2.90;99.90;;;;;;4990412;28;20385;-50
2022/01/07 02:45:17;;;;;;;11.15;7.18;;;2.90;99.90;;;;;;4990260;28;20113;-49
2022/01/07 02:47:55;;;;;;;12.88;7.45;;;2.90;99.90;;;;;;4989297;28;20130;-51
2022/01/07 02:50:25;;;;;;;11.80;6.43;;;2.90;99.90;;;;;;4990450;28;20403;-50
2022/01/07 02:52:52;;;;;;;11.52;6.55;;;2.90;99.90;;;;;;4988502;28;20054;-51
2022/01/07 02:55:19;;;;;;;13.00;6.75;;;2.90;99.90;;;;;;4990197;28;20042;-51
2022/01/07 02:57:44;;;;;;;9.15;7.32;;;2.90;99.90;;;;;;4990123;28;20489;-51
2022/01/07 03:00:12;;;;;;;12.50;8.13;;;2.90;99.90;;;;;;4989877;28;20095;-49
2022/01/07 03:02:37;;;;;;;11.15;6.93;;;2.90;99.90;;;;;;4989855;28;20388;-49
2022/01/07 03:05:03;;;;;;;14.35;7.78;;;2.90;99.90;;;;;;4989950;28;20045;-49
2022/01/07 03:07:29;;;;;;;11.02;7.05;;;2.90;99.90;;;;;;4990247;28;20088;-47
2022/01/07 03:09:55;;;;;;;12.13;7.95;;;2.90;99.90;;;;;;4989929;28;20046;-48
2022/01/07 03:12:21;;;;;;;14.07;7.72;;;2.80;99.90;;;;;;4989859;28;20042;-47
2022/01/07 03:14:48;;;;;;;11.65;7.85;;;2.90;99.90;;;;;;4989750;28;20045;-46
2022/01/07 03:17:14;;;;;;;17.42;8.32;;;2.80;99.90;;;;;;4989763;28;20057;-45
2022/01/07 03:19:39;;;;;;;14.63;7.65;;;2.80;99.90;;;;;;4990015;28;20135;-47
2022/01/07 03:22:05;;;;;;;14.82;8.25;;;2.90;99.90;;;;;;4990159;28;20497;-49
2022/01/07 03:24:31;;;;;;;15.55;8.57;;;2.80;99.90;;;;;;4989790;28;20121;-46
2022/01/07 03:26:56;;;;;;;9.40;7.75;;;2.80;99.90;;;;;;4989666;28;20037;-47
2022/01/07 03:29:22;;;;;;;11.45;8.27;;;2.80;99.90;;;;;;4989605;28;20076;-48
2022/01/07 03:31:48;;;;;;;12.63;7.63;;;2.80;99.90;;;;;;4989516;28;20125;-48
2022/01/07 03:34:13;;;;;;;12.27;8.15;;;2.80;99.90;;;;;;4989761;28;20039;-48
2022/01/07 03:36:39;;;;;;;13.93;8.15;;;2.80;99.90;;;;;;4989552;28;20103;-49
2022/01/07 03:39:05;;;;;;;11.77;8.48;;;2.80;99.90;;;;;;4989583;28;20047;-47
2022/01/07 03:41:31;;;;;;;13.88;8.35;;;2.80;99.90;;;;;;4989629;28;20042;-48
2022/01/07 03:43:56;;;;;;;13.98;8.93;;;2.80;99.90;;;;;;4989321;28;20044;-45
2022/01/07 03:46:22;;;;;;;14.48;8.30;;;2.80;99.90;;;;;;4989277;28;20366;-50
2022/01/07 03:48:47;;;;;;;15.73;8.95;;;2.90;99.90;;;;;;4989614;28;20034;-49
2022/01/07 03:51:13;;;;;;;14.88;8.70;;;2.80;99.90;;;;;;4989533;28;20034;-45
2022/01/07 03:53:39;;;;;;;14.68;8.50;;;2.80;99.90;;;;;;4989386;28;20042;-47
2022/01/07 03:56:05;;;;;;;15.25;8.60;;;2.90;99.90;;;;;;4989195;28;20092;-45
2022/01/07 03:58:30;;;;;;;12.48;8.85;;;2.90;99.90;;;;;;4991025;28;20038;-49
2022/01/07 04:00:56;;;;;;;16.10;8.70;;;2.90;99.90;;;;;;4992779;28;20038;-51
2022/01/07 04:03:21;;;;;;;16.85;10.00;;;2.90;99.90;;;;;;4992791;28;20041;-48
2022/01/07 04:05:47;;;;;;;12.80;8.77;;;2.90;99.90;;;;;;4992559;28;20042;-46
2022/01/07 04:08:13;;;;;;;15.65;9.25;;;2.90;99.90;;;;;;4992502;28;20038;-46
2022/01/07 04:10:40;;;;;;;12.43;9.27;;;2.90;99.90;;;;;;4992624;28;20080;-50
2022/01/07 04:13:06;;;;;;;15.18;8.82;;;2.90;99.90;;;;;;4992545;28;20042;-49
2022/01/07 04:15:32;;;;;;;15.95;9.52;;;3.00;99.90;;;;;;4992562;28;20057;-50
2022/01/07 04:17:58;;;;;;;12.13;8.18;;;2.90;99.90;;;;;;4992582;28;20126;-51
2022/01/07 04:20:27;;;;;;;13.00;8.85;;;3.00;99.90;;;;;;4992257;28;20122;-51
2022/01/07 04:22:54;;;;;;;16.77;8.20;;;3.00;99.90;;;;;;4992401;28;20053;-51
2022/01/07 04:25:21;;;;;;;13.80;8.50;;;2.90;99.90;;;;;;4992373;28;20034;-50
2022/01/07 04:27:56;;;;;;;13.13;8.45;;;2.90;99.90;;;;;;4992217;28;20117;-50
2022/01/07 04:30:23;;;;;;;10.63;8.73;;;3.00;99.90;;;;;;4992517;28;20042;-47
2022/01/07 04:32:49;;;;;;;16.58;8.70;;;3.00;99.90;;;;;;4992420;28;20050;-46
2022/01/07 04:35:17;;;;;;;17.80;8.48;;;3.00;99.90;;;;;;4992429;28;20135;-50
2022/01/07 04:37:43;;;;;;;13.45;8.10;;;3.00;99.90;;;;;;4992243;28;20141;-47
2022/01/07 04:40:11;;;;;;;11.43;8.27;;;3.00;99.90;;;;;;4992244;28;20093;-51
2022/01/07 04:42:37;;;;;;;14.32;7.82;;;3.00;99.90;;;;;;4992090;28;20088;-46
2022/01/07 04:45:07;;;;;;;14.40;8.82;;;3.10;99.90;;;;;;4992176;28;20540;-47
2022/01/07 04:47:35;;;;;;;16.88;8.45;;;3.10;99.90;;;;;;4992090;28;20042;-51
2022/01/07 04:50:01;;;;;;;9.90;8.18;;;3.10;99.90;;;;;;4991982;28;20045;-47
2022/01/07 04:52:26;;;;;;;10.15;8.02;;;3.10;99.90;;;;;;4991845;28;20438;-49
2022/01/07 04:54:52;;;;;;;20.23;9.35;;;3.00;99.90;;;;;;4991999;28;20047;-46
2022/01/07 04:57:18;;;;;;;13.43;8.85;;;3.10;99.90;;;;;;4992124;28;20042;-47
2022/01/07 04:59:43;;;;;;;15.65;9.35;;;3.10;99.90;;;;;;4992156;28;20053;-48
2022/01/07 05:02:09;;;;;;;14.57;8.88;;;3.10;99.90;;;;;;4991817;28;20042;-50
2022/01/07 05:04:34;;;;;;;16.90;9.88;;;3.10;99.90;;;;;;4991978;28;20070;-49
2022/01/07 05:07:00;;;;;;;15.63;9.27;;;3.10;99.90;;;;;;4991715;28;20030;-49
2022/01/07 05:09:26;;;;;;;14.90;9.18;;;3.10;99.90;;;;;;4990993;28;20480;-47
2022/01/07 05:11:53;;;;;;;13.80;8.85;;;3.20;99.90;;;;;;4991444;28;20496;-48
2022/01/07 05:14:19;;;;;;;12.95;9.23;;;3.10;99.90;;;;;;4991863;28;20388;-47
2022/01/07 05:16:45;;;;;;;12.73;8.88;;;3.20;99.90;;;;;;4991750;28;20469;-46
2022/01/07 05:19:11;;;;;;;12.48;8.85;;;3.20;99.90;;;;;;4991425;28;20042;-51
2022/01/07 05:21:38;;;;;;;14.60;9.15;;;3.20;99.90;;;;;;4991624;28;20144;-49
2022/01/07 05:24:05;;;;;;;13.48;8.38;;;3.20;99.90;;;;;;4991495;28;20485;-47
2022/01/07 05:26:31;;;;;;;11.15;8.35;;;3.20;99.90;;;;;;4991406;28;20078;-51
2022/01/07 05:28:57;;;;;;;13.23;9.13;;;3.20;99.90;;;;;;4991347;28;20038;-50
2022/01/07 05:31:23;;;;;;;11.95;9.02;;;3.20;99.90;;;;;;4991394;28;20415;-45
2022/01/07 05:33:53;;;;;;;13.35;8.60;;;3.30;99.90;;;;;;4991182;28;20496;-51
2022/01/07 05:36:20;;;;;;;11.90;8.57;;;3.30;99.90;;;;;;4991259;28;20412;-50
2022/01/07 05:38:46;;;;;;;11.32;8.63;;;3.30;99.90;;;;;;4991113;28;20408;-47
2022/01/07 05:41:12;;;;;;;14.07;8.38;;;3.30;99.90;;;;;;4991264;28;20040;-49
2022/01/07 05:43:39;;;;;;;13.45;8.63;;;3.40;99.90;;;;;;4991043;28;20113;-50
2022/01/07 05:46:05;;;;;;;12.48;8.20;;;3.40;99.90;;;;;;4991305;28;20400;-49
2022/01/07 05:48:32;;;;;;;12.90;8.77;;;3.40;99.90;;;;;;4991180;28;20034;-50
2022/01/07 05:50:58;;;;;;;12.45;8.95;;;3.40;99.90;;;;;;4991067;28;20054;-51
2022/01/07 05:53:23;;;;;;;14.90;9.18;;;3.40;99.90;;;;;;4990934;28;20407;-50
2022/01/07 05:55:49;;;;;;;11.18;9.02;;;3.40;99.90;;;;;;4991065;28;20475;-52
2022/01/07 05:58:14;;;;;;;12.48;8.23;;;3.40;99.90;;;;;;4990847;28;20141;-50
2022/01/07 06:00:40;;;;;;;12.02;8.45;;;3.40;99.90;;;;;;4991026;28;20129;-48
2022/01/07 06:03:06;;;;;;;14.50;9.05;;;3.40;99.90;;;;;;4991218;28;20038;-51
2022/01/07 06:05:32;;;;;;;14.63;8.93;;;3.40;99.90;;;;;;4991006;28;20508;-49
2022/01/07 06:07:57;;;;;;;14.23;8.52;;;3.40;99.90;;;;;;4990721;28;20066;-51
2022/01/07 06:10:23;;;;;;;18.30;9.10;;;3.50;99.90;;;;;;4990757;28;20543;-51
2022/01/07 06:12:48;;;;;;;13.35;8.90;;;3.50;99.90;;;;;;4990761;28;20043;-51
2022/01/07 06:15:14;;;;;;;14.38;9.70;;;3.40;99.90;;;;;;4990776;28;20038;-50
2022/01/07 06:17:40;;;;;;;14.30;8.75;;;3.50;99.90;;;;;;4990736;28;20054;-49
2022/01/07 06:20:07;;;;;;;17.10;9.18;;;3.50;99.90;;;;;;4990544;28;20074;-45
2022/01/07 06:22:34;;;;;;;16.35;8.65;;;3.50;99.90;;;;;;4990684;28;20062;-46
2022/01/07 06:25:00;;;;;;;12.52;8.82;;;3.50;99.90;;;;;;4990624;28;20049;-46
2022/01/07 06:27:26;;;;;;;12.05;8.55;;;3.50;99.90;;;;;;4990613;28;20034;-47
2022/01/07 06:29:51;;;;;;;9.95;8.18;;;3.50;99.90;;;;;;4990565;28;20390;-47
2022/01/07 06:32:17;;;;;;;11.40;8.60;;;3.50;99.90;;;;;;4990492;28;20038;-50
2022/01/07 06:34:43;;;;;;;13.20;8.35;;;3.50;99.90;;;;;;4990520;28;20488;-46
2022/01/07 06:37:08;;;;;;;13.65;8.48;;;3.40;99.90;;;;;;4989876;28;20074;-47
2022/01/07 06:39:35;;;;;;;13.00;8.80;;;3.50;99.90;;;;;;4990241;28;20053;-51
2022/01/07 06:42:01;;;;;;;11.05;8.60;;;3.50;99.90;;;;;;4990429;28;20109;-51
2022/01/07 06:44:27;;;;;;;10.98;8.18;;;3.50;99.90;;;;;;4990265;28;20038;-47
2022/01/07 06:46:54;;;;;;;11.45;8.05;;;3.50;99.90;;;;;;4990492;28;20101;-50
2022/01/07 06:49:19;;;;;;;14.52;8.43;;;3.50;99.90;;;;;;4990175;28;20046;-46
2022/01/07 06:51:45;;;;;;;11.82;8.20;;;3.50;99.90;;;;;;4990347;28;20093;-47
2022/01/07 06:54:11;;;;;;;11.85;8.30;;;3.50;99.90;;;;;;4990387;28;20525;-46
2022/01/07 06:56:42;;;;;;;11.18;8.93;;;3.50;99.90;;;;;;4990294;28;20045;-47
2022/01/07 06:59:09;;;;;;;10.20;8.07;;;3.50;99.90;;;;;;4989982;28;20042;-47
2022/01/07 07:01:35;;;;;;;13.63;8.95;;;3.50;99.90;;;;;;4990137;28;20445;-47
2022/01/07 07:04:01;;;;;;;12.00;8.32;;;3.50;99.90;;;;;;4989889;28;20054;-47
2022/01/07 07:06:27;;;;;;;11.55;8.60;;;3.50;99.90;;;;;;4990040;28;20149;-51
2022/01/07 07:08:52;;;;;;;12.07;8.80;;;3.50;99.90;;;;;;4990046;28;20041;-46
2022/01/07 07:11:18;;;;;;;12.50;8.90;;;3.60;99.90;;;;;;4989985;28;20043;-49
2022/01/07 07:13:44;;;;;;;14.13;9.55;;;3.60;99.90;;;;;;4989798;28;20039;-49
2022/01/07 07:16:09;;;;;;;14.05;10.10;;;3.60;99.90;;;;;;4989936;28;20038;-51
2022/01/07 07:18:35;;;;;;;13.57;9.30;;;3.60;99.90;;;;;;4989744;28;20051;-51
2022/01/07 07:21:00;;;;;;;13.25;9.38;;;3.60;99.90;;;;;;4989636;28;20061;-47
2022/01/07 07:23:26;;;;;;;13.13;9.45;;;3.60;99.90;;;;;;4989955;28;20034;-50
2022/01/07 07:25:52;;;;;;;13.68;9.45;;;3.70;99.90;;;;;;4989770;28;20083;-45
2022/01/07 07:28:19;;;;;;;14.05;10.40;;;3.70;99.90;;;;;;4989775;28;20042;-49
2022/01/07 07:30:45;;;;;;;15.15;10.32;;;3.70;99.90;;;;;;4989542;28;20117;-50
2022/01/07 07:38:35;;;;;;;15.75;10.80;;;3.80;99.90;;;;;;4989691;28;20046;-49
2022/01/07 07:41:01;;;;;;;14.27;10.43;;;3.80;99.90;;;;;;4989351;28;20035;-46
2022/01/07 07:43:27;;;;;;;12.90;11.10;;;3.80;99.90;;;;;;4989394;28;20103;-49
2022/01/07 07:45:53;;;;;;;16.00;11.32;;;3.80;99.90;;;;;;4989202;28;20031;-51
2022/01/07 07:48:18;;;;;;;14.23;10.40;;;3.80;99.90;;;;;;4989435;28;20042;-49
2022/01/07 07:50:44;;;;;;;21.42;11.82;;;3.90;99.90;;;;;;4989487;28;20050;-50
2022/01/07 07:53:10;;;;;;;18.25;11.45;;;3.90;99.90;;;;;;4989444;28;20485;-49
2022/01/07 07:55:35;;;;;;;17.00;12.65;;;4.00;99.90;;;;;;4989519;28;20047;-51
2022/01/07 07:58:01;;;;;;;15.90;12.30;;;4.00;99.90;;;;;;4989237;28;20038;-49
2022/01/07 08:00:27;;;;;;;18.85;12.35;;;4.00;99.90;;;;;;4989005;28;20049;-49
2022/01/07 08:02:52;;;;;;;21.65;12.15;;;4.00;99.90;;;;;;4989283;28;20049;-50
2022/01/07 08:05:18;;;;;;;18.88;12.52;;;4.00;99.90;;;;;;4989304;28;20050;-51
2022/01/07 08:07:43;;;;;;;15.73;12.10;;;4.10;99.90;;;;;;4989018;28;20074;-50
2022/01/07 08:10:09;;;;;;;19.55;12.55;;;4.10;99.90;;;;;;4989420;28;20070;-51
2022/01/07 08:12:53;;;;;;;20.85;12.32;;;4.20;99.90;;;;;;4988212;28;20058;-47
2022/01/07 08:18:04;;;;;;;21.13;13.25;;;4.20;99.90;;;;;;4989291;28;20374;-46
2022/01/07 08:20:30;;;;;;;19.08;13.25;;;4.20;99.90;;;;;;4988868;28;20048;-51
2022/01/07 08:22:56;;;;;;;16.77;13.38;;;4.20;99.90;;;;;;4989238;28;20085;-49
2022/01/07 08:25:23;;;;;;;19.50;13.30;;;4.20;99.90;;;;;;4988838;28;20077;-52
2022/01/07 08:27:50;;;;;;;24.45;14.10;;;4.30;99.90;;;;;;4988964;28;20088;-49
2022/01/07 08:30:22;;;;;;;19.98;13.43;;;4.20;99.90;;;;;;4989082;28;20089;-52
2022/01/07 08:35:35;;;;;;;24.80;14.70;;;4.30;99.90;;;;;;4988966;28;20050;-51
2022/01/07 08:38:01;;;;;;;19.95;14.85;;;4.30;99.90;;;;;;4988559;28;20141;-50
2022/01/07 08:40:27;;;;;;;27.30;15.45;;;4.30;99.90;;;;;;4988962;28;20118;-51
2022/01/07 08:42:53;;;;;;;21.80;14.80;;;4.40;99.90;;;;;;4988704;28;20042;-47
2022/01/07 08:45:18;;;;;;;24.92;15.73;;;4.40;99.90;;;;;;4989749;28;20050;-51
2022/01/07 08:47:44;;;;;;;24.05;15.50;;;4.40;99.90;;;;;;4992033;28;20088;-52
2022/01/07 08:50:10;;;;;;;22.92;13.52;;;4.40;99.90;;;;;;4991927;28;20046;-51
2022/01/07 08:52:35;;;;;;;25.38;14.93;;;4.50;99.90;;;;;;4991854;28;20465;-47
2022/01/07 08:55:01;;;;;;;22.80;15.93;;;4.50;99.90;;;;;;4991975;28;20447;-50
2022/01/07 08:57:26;;;;;;;22.00;14.98;;;4.50;99.90;;;;;;4991932;28;20443;-52
2022/01/07 08:59:52;;;;;;;27.08;15.48;;;4.50;99.90;;;;;;4992005;28;20042;-48
2022/01/07 09:02:18;;;;;;;29.75;15.55;;;4.50;99.90;;;;;;4989986;28;20820;-51
2022/01/07 09:04:44;;;;;;;25.92;14.75;;;4.60;99.90;;;;;;4991841;28;20034;-51
2022/01/07 09:07:09;;;;;;;21.85;15.57;;;4.60;99.90;;;;;;4991577;28;20076;-51
2022/01/07 09:09:35;;;;;;;21.65;15.48;;;4.60;99.90;;;;;;4991853;28;20045;-52
2022/01/07 09:12:01;;;;;;;25.40;15.75;;;4.60;99.90;;;;;;4991763;28;20084;-49
2022/01/07 09:14:26;;;;;;;19.95;14.90;;;4.70;99.90;;;;;;4991630;28;20042;-52
2022/01/07 09:16:52;;;;;;;23.48;15.02;;;4.70;99.90;;;;;;4991662;28;20042;-52
2022/01/07 09:19:18;;;;;;;26.23;15.18;;;4.70;99.90;;;;;;4990199;28;20034;-53
2022/01/07 09:21:44;;;;;;;26.23;16.98;;;4.80;99.90;;;;;;4991404;28;20042;-51
2022/01/07 09:24:10;;;;;;;24.40;15.55;;;4.80;99.90;;;;;;4991503;28;20382;-50
2022/01/07 09:26:35;;;;;;;20.80;16.17;;;4.80;99.90;;;;;;4991630;28;20046;-52
2022/01/07 09:29:01;;;;;;;24.80;15.52;;;4.80;99.90;;;;;;4991589;28;20473;-50
2022/01/07 09:31:26;;;;;;;29.00;16.52;;;4.90;99.90;;;;;;4991241;28;20384;-52
2022/01/07 09:33:52;;;;;;;23.58;15.60;;;4.90;99.90;;;;;;4991348;28;20030;-52
2022/01/07 09:36:18;;;;;;;32.92;15.68;;;4.90;99.90;;;;;;4991048;28;20481;-47
2022/01/07 09:38:43;;;;;;;27.52;17.23;;;5.00;99.90;;;;;;4991397;28;20092;-49
2022/01/07 09:41:09;;;;;;;25.77;17.77;;;4.90;99.90;;;;;;4991607;28;20492;-49
2022/01/07 09:43:35;;;;;;;28.30;17.15;;;5.00;99.90;;;;;;4991454;28;20050;-49
2022/01/07 09:46:00;;;;;;;26.48;17.05;;;5.00;99.90;;;;;;4991232;28;20038;-50
2022/01/07 09:48:26;;;;;;;26.77;16.15;;;5.00;99.90;;;;;;4991115;28;20081;-50
2022/01/07 09:50:52;;;;;;;26.35;16.77;;;5.00;99.90;;;;;;4990961;28;20045;-50
2022/01/07 09:53:18;;;;;;;23.70;15.48;;;5.10;99.90;;;;;;4990919;28;20050;-50
2022/01/07 09:55:44;;;;;;;22.50;14.65;;;5.10;99.90;;;;;;4990831;28;20043;-49
2022/01/07 09:58:13;;;;;;;26.45;15.15;;;5.10;99.90;;;;;;4991139;28;20065;-51
2022/01/07 10:00:44;;;;;;;21.65;13.73;;;5.10;99.90;;;;;;4990944;28;20465;-48
2022/01/07 10:03:13;;;;;;;19.33;12.52;;;5.10;99.90;;;;;;4989616;28;20043;-51
2022/01/07 10:05:41;;;;;;;23.33;12.82;;;5.10;99.90;;;;;;4990886;28;20586;-48
2022/01/07 10:08:25;;;;;;;24.98;11.73;;;5.10;99.90;;;;;;4989933;28;20134;-46
2022/01/07 10:11:14;;;;;;;15.43;10.90;;;5.10;99.90;;;;;;4990814;28;20053;-50
2022/01/07 10:14:03;;;;;;;12.60;8.30;;;5.10;99.90;;;;;;4990569;28;20065;-49
2022/01/07 10:16:29;;;;;;;11.65;5.75;;;5.10;99.90;;;;;;4993170;28;20508;-50
2022/01/07 10:18:54;;;;;;;10.80;3.85;;;5.10;99.90;;;;;;4990686;28;20046;-47
2022/01/07 10:21:22;;;;;;;5.93;2.35;;;5.00;99.90;;;;;;4990739;28;20046;-48
2022/01/07 10:23:47;;;;;;;4.68;2.05;;;4.90;99.90;;;;;;4990388;28;20415;-51
2022/01/07 10:26:16;;;;;;;6.60;3.05;;;4.90;99.90;;;;;;4990449;28;20049;-47
2022/01/07 10:28:42;;;;;;;5.32;3.03;;;4.90;99.90;;;;;;4990447;28;20047;-47
2022/01/07 10:31:09;;;;;;;6.53;3.40;;;4.90;99.90;;;;;;4990602;28;20046;-50
2022/01/07 10:33:41;;;;;;;7.38;3.40;;;4.90;99.90;;;;;;4990404;28;20071;-51
2022/01/07 10:36:07;;;;;;;5.32;3.67;;;4.80;99.90;;;;;;4990156;28;20145;-46
2022/01/07 10:38:35;;;;;;;6.22;3.78;;;4.90;99.90;;;;;;4990472;28;20171;-51
2022/01/07 10:41:02;;;;;;;6.10;3.60;;;5.00;99.90;;;;;;4990557;28;20054;-47
2022/01/07 10:43:35;;;;;;;6.53;3.33;;;5.10;99.90;;;;;;4990611;28;20048;-49
2022/01/07 10:46:24;;;;;;;5.53;3.30;;;5.20;99.90;;;;;;4990292;28;20041;-51
2022/01/07 10:48:57;;;;;;;5.97;2.75;;;5.30;99.90;;;;;;4990116;28;20069;-51
2022/01/07 10:51:25;;;;;;;3.50;2.17;;;5.30;99.90;;;;;;4990219;28;20073;-47
2022/01/07 10:53:56;;;;;;;5.65;2.00;;;5.30;99.90;;;;;;4990055;28;20034;-49
2022/01/07 10:56:51;;;;;;;7.20;3.28;;;5.20;99.90;;;;;;4990148;28;20066;-48
2022/01/07 10:59:20;;;;;;;5.88;2.15;;;5.10;99.90;;;;;;4989915;28;20050;-49
2022/01/07 11:01:50;;;;;;;5.80;2.63;;;5.10;99.90;;;;;;4989977;28;20481;-49
2022/01/07 11:04:18;;;;;;;6.18;2.00;;;5.00;99.90;;;;;;4990071;28;20039;-48
2022/01/07 11:06:46;;;;;;;5.00;1.50;;;5.10;99.90;;;;;;4989916;28;20034;-49
2022/01/07 11:09:14;;;;;;;6.05;2.17;;;5.10;99.90;;;;;;4989339;28;20407;-51
2022/01/07 11:12:01;;;;;;;3.47;1.45;;;5.10;99.90;;;;;;4989786;28;20038;-50
2022/01/07 11:14:32;;;;;;;4.03;1.88;;;5.10;99.90;;;;;;4989696;28;20044;-52
2022/01/07 11:17:03;;;;;;;5.28;1.80;;;5.10;99.90;;;;;;4989867;28;20069;-49
2022/01/07 11:19:42;;;;;;;8.57;2.10;;;5.10;99.90;;;;;;4990050;28;20053;-50
2022/01/07 11:22:14;;;;;;;5.78;2.10;;;5.10;99.90;;;;;;4989872;28;20407;-51
2022/01/07 11:24:50;;;;;;;5.13;2.58;;;5.10;99.90;;;;;;4989504;28;20042;-46
2022/01/07 11:27:27;;;;;;;5.50;2.25;;;5.10;99.90;;;;;;4989706;28;20042;-50
2022/01/07 11:30:11;;;;;;;8.68;3.17;;;5.30;99.90;;;;;;4989563;28;20048;-51
2022/01/07 11:32:44;;;;;;;7.05;3.95;;;5.40;99.90;;;;;;4989575;28;20117;-51
2022/01/07 11:35:23;;;;;;;6.05;4.22;;;5.50;99.90;;;;;;4989429;28;20082;-51
2022/01/07 11:37:56;;;;;;;9.43;4.47;;;5.60;99.90;;;;;;4989650;28;20065;-48
2022/01/07 11:40:31;;;;;;;8.50;4.50;;;5.80;99.90;;;;;;4989307;28;20121;-50
2022/01/07 11:43:18;;;;;;;11.52;5.03;;;6.00;99.90;;;;;;4989653;28;20046;-50
2022/01/07 11:45:45;;;;;;;11.38;5.18;;;6.10;99.90;;;;;;4989663;28;20062;-52
2022/01/07 11:48:26;;;;;;;10.20;5.57;;;6.20;99.90;;;;;;4989524;28;20088;-51
2022/01/07 11:50:55;;;;;;;10.80;5.68;;;6.30;99.90;;;;;;4989571;28;20042;-50
2022/01/07 11:53:46;;;;;;;10.50;5.72;;;6.50;99.90;;;;;;4989306;28;20438;-50
2022/01/07 11:56:14;;;;;;;11.68;5.82;;;6.60;99.90;;;;;;4989140;28;20046;-52
2022/01/07 11:58:43;;;;;;;13.50;6.00;;;6.70;99.90;;;;;;4989309;28;20038;-47
2022/01/07 12:01:32;;;;;;;12.82;6.18;;;6.90;99.90;;;;;;4989387;28;20042;-49
2022/01/07 12:04:00;;;;;;;9.25;5.65;;;6.90;99.90;;;;;;4989341;28;20089;-50
2022/01/07 12:11:41;;;;;;;12.70;6.95;;;7.10;99.90;;;;;;4989159;28;20039;-51
2022/01/07 12:14:15;;;;;;;15.88;5.80;;;7.10;99.90;;;;;;4989070;28;20100;-50
2022/01/07 12:16:49;;;;;;;14.38;6.25;;;6.90;99.90;;;;;;4988943;28;20559;-51
2022/01/07 12:19:25;;;;;;;11.52;6.40;;;6.80;99.90;;;;;;4990367;28;20049;-51
2022/01/07 12:21:54;;;;;;;11.20;6.82;;;6.60;99.90;;;;;;4992233;28;20502;-48
2022/01/07 12:24:25;;;;;;;13.77;6.85;;;6.50;99.90;;;;;;4992459;28;20435;-52
2022/01/07 12:27:24;;;;;;;15.18;7.07;;;6.50;99.90;;;;;;4992181;28;20038;-52
2022/01/07 12:29:52;;;;;;;12.38;6.45;;;6.40;99.90;;;;;;4992449;28;20070;-48
2022/01/07 12:32:18;;;;;;;11.43;7.00;;;6.50;99.90;;;;;;4992608;28;20046;-50
2022/01/07 12:34:49;;;;;;;9.20;6.25;;;6.40;99.90;;;;;;4992563;28;20111;-50
2022/01/07 12:37:21;;;;;;;14.75;6.65;;;6.30;99.90;;;;;;4990919;28;20069;-50
2022/01/07 12:39:51;;;;;;;15.35;7.25;;;6.30;99.90;;;;;;4990818;28;20488;-50
2022/01/07 12:42:17;;;;;;;10.60;6.20;;;6.20;99.90;;;;;;4991945;28;20528;-51
2022/01/07 12:44:46;;;;;;;9.85;5.25;;;6.10;99.90;;;;;;4990701;28;20114;-51
2022/01/07 12:47:17;;;;;;;14.77;5.38;;;6.10;99.90;;;;;;4992187;28;20476;-50
2022/01/07 12:49:57;;;;;;;9.95;4.15;;;6.00;99.90;;;;;;4991766;28;20042;-50
2022/01/07 12:52:31;;;;;;;10.27;4.53;;;5.90;99.90;;;;;;4991677;28;20039;-51
2022/01/07 12:55:11;;;;;;;10.95;4.03;;;5.90;99.90;;;;;;4991830;28;20438;-52
2022/01/07 12:57:46;;;;;;;9.93;3.70;;;5.90;99.90;;;;;;4991663;28;20050;-51
2022/01/07 13:00:14;;;;;;;6.68;3.78;;;5.90;99.90;;;;;;4991849;28;20041;-51
2022/01/07 13:02:43;;;;;;;8.13;3.70;;;5.90;99.90;;;;;;4991618;28;20504;-51
2022/01/07 13:05:20;;;;;;;12.25;4.18;;;6.00;99.90;;;;;;4991778;28;20093;-52